Terminal Aerodrome Forecast
Issued by NWS Wilmington, OH

Current Version | Previous Version | Graphics & Text | Print | Product List | Glossary On
Versions: 1 2 3 4 5 6 7 8 9 10 11 12 13 14 15 16 17 18 19 20 21 22 23 24
426
FTUS41 KILN 181458 AAA
TAFCVG
TAF AMD
KCVG 181458Z 1815/1918 19005KT P6SM FEW045 BKN090
     FM182000 20005KT P6SM VCTS SCT040CB BKN090
     FM190000 00000KT P6SM BKN090
     FM190600 16003KT P6SM SCT040 BKN090
     FM191600 18005KT P6SM VCTS SCT040CB BKN090=

USA.gov is the U.S. government's official web portal to all federal, state and local government web resources and services.